PWSweather.com
Personal Weather Stations
Station Observations
COLASTNORT
Colastiné Norte, Santa FeAR 3000

Colastiné NorteSanta FeAR 3000

Lat: -31.63, Lon: -60.603

Elevation: 56

Station Type: Daza WH3104

http://www.estaciongralpaz.com.ar/colastine

Latest ConditionsUpdated 12:28:00 AM GMT-03:57 Wednesday, Mar 27, 2019
Currently Today's Max Today's Min Today's Average
Temperature 61.9°F16.6°C 61.9°F16.6°C 61.3°F16.3°C 61.7°F16.5°C
Dew Point 57.0°F13.9°C 57.3°F14.1°C 56.5°F13.6°C 56.9°F13.8°C
Winds 2.0 mph N3.2 kmh N 2.9 mph -4.7 kmh - - 1.4 mph 2.3 kmh
Wind Gusts 5.8 mph9.3 kmh 7.9 mph12.7 kmh - -
Humidity 84% 85% 84% 84%
Pressure 30.17 in1021.7 mb 30.17 in1021.7 mb 30.16 in1021.3 mb -
Hour Temp Dew Point Humidity Winds Wind Gusts Pressure Precip Precip Rate Daily Precip Total
12:28 AM 61.9°F16.6°C 57.0°F13.9°C 84% 2.0 mph N3.2 kmh N 5.8 mph9.3 kmh 30.17 in1021.7 mb 0.00 in0.0 mm 0.00 in0.0 mm 0.00 in0.0 mm
12:27 AM 61.9°F16.6°C 57.0°F13.9°C 84% 2.0 mph NE3.2 kmh NE 5.8 mph9.3 kmh 30.17 in1021.7 mb 0.00 in0.0 mm 0.00 in0.0 mm 0.00 in0.0 mm
12:26 AM 61.9°F16.6°C 57.0°F13.9°C 84% 2.0 mph NE3.2 kmh NE 7.9 mph12.7 kmh 30.17 in1021.7 mb 0.00 in0.0 mm 0.00 in0.0 mm 0.00 in0.0 mm
12:25 AM 61.9°F16.6°C 57.0°F13.9°C 84% 2.0 mph ENE3.2 kmh ENE 7.9 mph12.7 kmh 30.16 in1021.3 mb 0.00 in0.0 mm 0.00 in0.0 mm 0.00 in0.0 mm
12:24 AM 61.9°F16.6°C 57.0°F13.9°C 84% 2.9 mph E4.7 kmh E 7.9 mph12.7 kmh 30.17 in1021.7 mb 0.00 in0.0 mm 0.00 in0.0 mm 0.00 in0.0 mm
12:23 AM 61.9°F16.6°C 57.0°F13.9°C 84% 2.0 mph ESE3.2 kmh ESE 7.9 mph12.7 kmh 30.17 in1021.7 mb 0.00 in0.0 mm 0.00 in0.0 mm 0.00 in0.0 mm
12:22 AM 61.9°F16.6°C 57.0°F13.9°C 84% 2.0 mph ESE3.2 kmh ESE 7.9 mph12.7 kmh 30.17 in1021.7 mb 0.00 in0.0 mm 0.00 in0.0 mm 0.00 in0.0 mm
12:21 AM 61.9°F16.6°C 57.0°F13.9°C 84% 2.0 mph SE3.2 kmh SE 7.9 mph12.7 kmh 30.16 in1021.3 mb 0.00 in0.0 mm 0.00 in0.0 mm 0.00 in0.0 mm
12:20 AM 61.9°F16.6°C 57.0°F13.9°C 84% Calm Calm 7.9 mph12.7 kmh 30.16 in1021.3 mb 0.00 in0.0 mm 0.00 in0.0 mm 0.00 in0.0 mm
12:19 AM 61.9°F16.6°C 57.0°F13.9°C 84% Calm Calm 7.9 mph12.7 kmh 30.16 in1021.3 mb 0.00 in0.0 mm 0.00 in0.0 mm 0.00 in0.0 mm
12:18 AM 61.9°F16.6°C 57.0°F13.9°C 84% 0.9 mph SE1.4 kmh SE 7.9 mph12.7 kmh 30.16 in1021.3 mb 0.00 in0.0 mm 0.00 in0.0 mm 0.00 in0.0 mm
12:17 AM 61.9°F16.6°C 57.0°F13.9°C 84% 2.0 mph SE3.2 kmh SE 7.9 mph12.7 kmh 30.16 in1021.3 mb 0.00 in0.0 mm 0.00 in0.0 mm 0.00 in0.0 mm
12:16 AM 61.9°F16.6°C 57.0°F13.9°C 84% 0.9 mph SE1.4 kmh SE 5.8 mph9.3 kmh 30.16 in1021.3 mb 0.00 in0.0 mm 0.00 in0.0 mm 0.00 in0.0 mm
12:15 AM 61.9°F16.6°C 57.3°F14.1°C 85% 0.9 mph SE1.4 kmh SE 5.8 mph9.3 kmh 30.16 in1021.3 mb 0.00 in0.0 mm 0.00 in0.0 mm 0.00 in0.0 mm
12:14 AM 61.7°F16.5°C 57.2°F14.0°C 85% 0.9 mph SE1.4 kmh SE 5.8 mph9.3 kmh 30.16 in1021.3 mb 0.00 in0.0 mm 0.00 in0.0 mm 0.00 in0.0 mm
12:13 AM 61.7°F16.5°C 57.2°F14.0°C 85% 2.0 mph SE3.2 kmh SE 5.8 mph9.3 kmh 30.16 in1021.3 mb 0.00 in0.0 mm 0.00 in0.0 mm 0.00 in0.0 mm
12:12 AM 61.7°F16.5°C 57.2°F14.0°C 85% 2.9 mph ESE4.7 kmh ESE 5.8 mph9.3 kmh 30.16 in1021.3 mb 0.00 in0.0 mm 0.00 in0.0 mm 0.00 in0.0 mm
12:11 AM 61.5°F16.4°C 57.0°F13.9°C 85% 0.9 mph E1.4 kmh E 4.9 mph7.9 kmh 30.16 in1021.3 mb 0.00 in0.0 mm 0.00 in0.0 mm 0.00 in0.0 mm
12:10 AM 61.5°F16.4°C 56.7°F13.7°C 84% 0.9 mph E1.4 kmh E 4.9 mph7.9 kmh 30.16 in1021.3 mb 0.00 in0.0 mm 0.00 in0.0 mm 0.00 in0.0 mm
12:09 AM 61.5°F16.4°C 56.7°F13.7°C 84% 0.9 mph E1.4 kmh E 4.9 mph7.9 kmh 30.16 in1021.3 mb 0.00 in0.0 mm 0.00 in0.0 mm 0.00 in0.0 mm
12:08 AM 61.5°F16.4°C 56.7°F13.7°C 84% Calm Calm 4.9 mph7.9 kmh 30.17 in1021.7 mb 0.00 in0.0 mm 0.00 in0.0 mm 0.00 in0.0 mm
12:07 AM 61.5°F16.4°C 56.7°F13.7°C 84% Calm Calm 4.9 mph7.9 kmh 30.16 in1021.3 mb 0.00 in0.0 mm 0.00 in0.0 mm 0.00 in0.0 mm
12:06 AM 61.3°F16.3°C 56.5°F13.6°C 84% 2.9 mph E4.7 kmh E 4.9 mph7.9 kmh 30.16 in1021.3 mb 0.00 in0.0 mm 0.00 in0.0 mm 0.00 in0.0 mm
12:05 AM 61.3°F16.3°C 56.5°F13.6°C 84% 2.9 mph E4.7 kmh E 4.9 mph7.9 kmh 30.16 in1021.3 mb 0.00 in0.0 mm 0.00 in0.0 mm 0.00 in0.0 mm
12:04 AM 61.3°F16.3°C 56.5°F13.6°C 84% 0.9 mph ESE1.4 kmh ESE 4.9 mph7.9 kmh 30.16 in1021.3 mb 0.00 in0.0 mm 0.00 in0.0 mm 0.00 in0.0 mm
12:03 AM 61.3°F16.3°C 56.5°F13.6°C 84% 0.9 mph E1.4 kmh E 4.9 mph7.9 kmh 30.17 in1021.7 mb 0.00 in0.0 mm 0.00 in0.0 mm 0.00 in0.0 mm
12:02 AM 61.3°F16.3°C 56.5°F13.6°C 84% Calm Calm 4.9 mph7.9 kmh 30.16 in1021.3 mb 0.00 in0.0 mm 0.00 in0.0 mm 0.00 in0.0 mm
12:01 AM 61.3°F16.3°C 56.5°F13.6°C 84% 0.9 mph SE1.4 kmh SE 4.9 mph7.9 kmh 30.16 in1021.3 mb 0.00 in0.0 mm 0.00 in0.0 mm 0.00 in0.0 mm
12:00 AM 61.3°F16.3°C 56.5°F13.6°C 84% 0.9 mph SE1.4 kmh SE 4.9 mph7.9 kmh 30.16 in1021.3 mb 0.00 in0.0 mm 0.00 in0.0 mm 0.00 in0.0 mm